sensor_id;sensor_type;location;lat;lon;timestamp;P1;durP1;ratioP1;P2;durP2;ratioP2
19219;SDS011;9744;49.364;7.484;2023-02-01T00:02:00;56.10;;;22.17;;
19219;SDS011;9744;49.364;7.484;2023-02-01T00:04:29;62.08;;;22.27;;
19219;SDS011;9744;49.364;7.484;2023-02-01T00:06:57;60.90;;;22.02;;
19219;SDS011;9744;49.364;7.484;2023-02-01T00:09:24;52.40;;;22.00;;
19219;SDS011;9744;49.364;7.484;2023-02-01T00:11:51;57.05;;;22.48;;
19219;SDS011;9744;49.364;7.484;2023-02-01T00:14:19;59.95;;;22.75;;
19219;SDS011;9744;49.364;7.484;2023-02-01T00:16:46;75.30;;;23.67;;
19219;SDS011;9744;49.364;7.484;2023-02-01T00:19:14;55.50;;;21.60;;
19219;SDS011;9744;49.364;7.484;2023-02-01T00:21:43;65.03;;;23.50;;
19219;SDS011;9744;49.364;7.484;2023-02-01T00:24:11;65.03;;;24.35;;
19219;SDS011;9744;49.364;7.484;2023-02-01T00:26:39;74.65;;;26.00;;
19219;SDS011;9744;49.364;7.484;2023-02-01T00:29:09;70.72;;;24.75;;
19219;SDS011;9744;49.364;7.484;2023-02-01T00:31:38;80.65;;;26.48;;
19219;SDS011;9744;49.364;7.484;2023-02-01T00:34:06;74.30;;;24.20;;
19219;SDS011;9744;49.364;7.484;2023-02-01T00:36:34;74.80;;;26.10;;
19219;SDS011;9744;49.364;7.484;2023-02-01T00:39:03;71.43;;;26.48;;
19219;SDS011;9744;49.364;7.484;2023-02-01T00:41:30;154.10;;;30.40;;
19219;SDS011;9744;49.364;7.484;2023-02-01T00:47:51;81.78;;;27.92;;
19219;SDS011;9744;49.364;7.484;2023-02-01T00:50:18;77.18;;;29.08;;
19219;SDS011;9744;49.364;7.484;2023-02-01T00:52:45;75.90;;;24.95;;
19219;SDS011;9744;49.364;7.484;2023-02-01T00:55:14;69.47;;;26.20;;
19219;SDS011;9744;49.364;7.484;2023-02-01T00:57:41;71.43;;;25.13;;
19219;SDS011;9744;49.364;7.484;2023-02-01T01:00:09;69.88;;;25.98;;
19219;SDS011;9744;49.364;7.484;2023-02-01T01:02:37;88.82;;;26.58;;
19219;SDS011;9744;49.364;7.484;2023-02-01T01:05:04;68.57;;;25.42;;
19219;SDS011;9744;49.364;7.484;2023-02-01T01:07:32;70.57;;;25.23;;
19219;SDS011;9744;49.364;7.484;2023-02-01T01:10:00;79.30;;;25.05;;
19219;SDS011;9744;49.364;7.484;2023-02-01T01:12:29;79.97;;;28.42;;
19219;SDS011;9744;49.364;7.484;2023-02-01T01:14:57;90.80;;;30.05;;
19219;SDS011;9744;49.364;7.484;2023-02-01T01:17:31;82.28;;;26.00;;
19219;SDS011;9744;49.364;7.484;2023-02-01T01:19:58;82.80;;;29.30;;
19219;SDS011;9744;49.364;7.484;2023-02-01T01:22:25;86.63;;;28.40;;
19219;SDS011;9744;49.364;7.484;2023-02-01T01:24:52;87.78;;;27.38;;
19219;SDS011;9744;49.364;7.484;2023-02-01T01:27:20;83.53;;;25.77;;
19219;SDS011;9744;49.364;7.484;2023-02-01T01:29:50;193.10;;;30.80;;
19219;SDS011;9744;49.364;7.484;2023-02-01T01:32:17;178.05;;;28.73;;
19219;SDS011;9744;49.364;7.484;2023-02-01T01:34:45;105.97;;;30.52;;
19219;SDS011;9744;49.364;7.484;2023-02-01T01:37:12;163.20;;;33.72;;
19219;SDS011;9744;49.364;7.484;2023-02-01T01:39:39;144.00;;;33.38;;
19219;SDS011;9744;49.364;7.484;2023-02-01T01:42:08;121.47;;;30.80;;
19219;SDS011;9744;49.364;7.484;2023-02-01T01:44:59;136.85;;;30.65;;
19219;SDS011;9744;49.364;7.484;2023-02-01T01:47:31;119.65;;;28.35;;
19219;SDS011;9744;49.364;7.484;2023-02-01T01:50:04;313.20;;;33.78;;
19219;SDS011;9744;49.364;7.484;2023-02-01T01:56:27;61.08;;;21.75;;
19219;SDS011;9744;49.364;7.484;2023-02-01T01:58:56;82.40;;;23.95;;
19219;SDS011;9744;49.364;7.484;2023-02-01T02:01:25;118.18;;;29.05;;
19219;SDS011;9744;49.364;7.484;2023-02-01T02:03:53;615.83;;;46.67;;
19219;SDS011;9744;49.364;7.484;2023-02-01T02:09:11;941.83;;;72.72;;
19219;SDS011;9744;49.364;7.484;2023-02-01T02:11:38;1744.10;;;108.20;;
19219;SDS011;9744;49.364;7.484;2023-02-01T02:14:06;928.88;;;67.93;;
19219;SDS011;9744;49.364;7.484;2023-02-01T02:16:58;1374.90;;;90.70;;
19219;SDS011;9744;49.364;7.484;2023-02-01T02:19:59;658.55;;;54.25;;
19219;SDS011;9744;49.364;7.484;2023-02-01T02:27:01;127.47;;;29.15;;
19219;SDS011;9744;49.364;7.484;2023-02-01T02:35:46;99.20;;;28.38;;
19219;SDS011;9744;49.364;7.484;2023-02-01T02:38:23;108.28;;;30.33;;
19219;SDS011;9744;49.364;7.484;2023-02-01T02:40:57;127.50;;;30.25;;
19219;SDS011;9744;49.364;7.484;2023-02-01T02:44:01;176.43;;;31.88;;
19219;SDS011;9744;49.364;7.484;2023-02-01T02:46:53;176.35;;;32.20;;
19219;SDS011;9744;49.364;7.484;2023-02-01T02:49:47;121.07;;;31.38;;
19219;SDS011;9744;49.364;7.484;2023-02-01T02:52:38;131.70;;;31.08;;
19219;SDS011;9744;49.364;7.484;2023-02-01T02:55:28;387.23;;;38.65;;
19219;SDS011;9744;49.364;7.484;2023-02-01T03:01:59;351.70;;;39.65;;
19219;SDS011;9744;49.364;7.484;2023-02-01T03:04:44;119.47;;;30.70;;
19219;SDS011;9744;49.364;7.484;2023-02-01T03:07:13;109.20;;;31.98;;
19219;SDS011;9744;49.364;7.484;2023-02-01T03:10:02;105.68;;;27.88;;
19219;SDS011;9744;49.364;7.484;2023-02-01T03:12:31;125.18;;;29.02;;
19219;SDS011;9744;49.364;7.484;2023-02-01T03:15:19;66.97;;;21.52;;
19219;SDS011;9744;49.364;7.484;2023-02-01T03:17:52;65.28;;;22.73;;
19219;SDS011;9744;49.364;7.484;2023-02-01T03:20:25;64.13;;;20.02;;
19219;SDS011;9744;49.364;7.484;2023-02-01T03:22:54;76.18;;;21.98;;
19219;SDS011;9744;49.364;7.484;2023-02-01T03:25:41;76.25;;;22.40;;
19219;SDS011;9744;49.364;7.484;2023-02-01T03:28:09;72.45;;;22.88;;
19219;SDS011;9744;49.364;7.484;2023-02-01T03:30:38;79.80;;;23.00;;
19219;SDS011;9744;49.364;7.484;2023-02-01T03:33:09;70.07;;;24.25;;
19219;SDS011;9744;49.364;7.484;2023-02-01T03:35:50;86.20;;;26.25;;
19219;SDS011;9744;49.364;7.484;2023-02-01T03:38:27;98.32;;;27.95;;
19219;SDS011;9744;49.364;7.484;2023-02-01T03:44:13;97.93;;;30.00;;
19219;SDS011;9744;49.364;7.484;2023-02-01T03:46:44;106.40;;;28.40;;
19219;SDS011;9744;49.364;7.484;2023-02-01T03:49:23;87.03;;;27.95;;
19219;SDS011;9744;49.364;7.484;2023-02-01T03:51:55;77.63;;;25.13;;
19219;SDS011;9744;49.364;7.484;2023-02-01T03:54:25;86.10;;;25.52;;
19219;SDS011;9744;49.364;7.484;2023-02-01T03:56:54;72.07;;;22.80;;
19219;SDS011;9744;49.364;7.484;2023-02-01T03:59:23;73.13;;;25.25;;
19219;SDS011;9744;49.364;7.484;2023-02-01T04:01:50;66.85;;;20.73;;
19219;SDS011;9744;49.364;7.484;2023-02-01T04:04:18;61.58;;;20.73;;
19219;SDS011;9744;49.364;7.484;2023-02-01T04:06:49;66.45;;;22.17;;
19219;SDS011;9744;49.364;7.484;2023-02-01T04:09:19;59.22;;;20.00;;
19219;SDS011;9744;49.364;7.484;2023-02-01T04:11:46;51.22;;;19.45;;
19219;SDS011;9744;49.364;7.484;2023-02-01T04:14:13;52.47;;;19.45;;
19219;SDS011;9744;49.364;7.484;2023-02-01T04:16:40;66.57;;;21.50;;
19219;SDS011;9744;49.364;7.484;2023-02-01T04:19:08;54.28;;;19.80;;
19219;SDS011;9744;49.364;7.484;2023-02-01T04:21:35;66.38;;;22.23;;
19219;SDS011;9744;49.364;7.484;2023-02-01T04:24:03;74.45;;;25.70;;
19219;SDS011;9744;49.364;7.484;2023-02-01T04:26:32;74.07;;;25.33;;
19219;SDS011;9744;49.364;7.484;2023-02-01T04:28:59;71.43;;;24.92;;
19219;SDS011;9744;49.364;7.484;2023-02-01T04:31:26;80.35;;;24.60;;
19219;SDS011;9744;49.364;7.484;2023-02-01T04:33:54;76.75;;;25.90;;
19219;SDS011;9744;49.364;7.484;2023-02-01T04:36:23;78.30;;;26.38;;
19219;SDS011;9744;49.364;7.484;2023-02-01T04:42:52;82.93;;;27.55;;
19219;SDS011;9744;49.364;7.484;2023-02-01T04:45:19;79.10;;;27.38;;
19219;SDS011;9744;49.364;7.484;2023-02-01T04:47:47;79.18;;;27.45;;
19219;SDS011;9744;49.364;7.484;2023-02-01T04:50:14;91.57;;;31.73;;
19219;SDS011;9744;49.364;7.484;2023-02-01T05:01:04;87.60;;;32.35;;
19219;SDS011;9744;49.364;7.484;2023-02-01T05:07:27;70.75;;;28.05;;
19219;SDS011;9744;49.364;7.484;2023-02-01T05:09:54;72.63;;;24.67;;
19219;SDS011;9744;49.364;7.484;2023-02-01T05:12:21;78.13;;;24.35;;
19219;SDS011;9744;49.364;7.484;2023-02-01T05:15:06;67.65;;;24.90;;
19219;SDS011;9744;49.364;7.484;2023-02-01T05:17:35;69.55;;;22.48;;
19219;SDS011;9744;49.364;7.484;2023-02-01T05:20:02;51.50;;;19.45;;
19219;SDS011;9744;49.364;7.484;2023-02-01T05:22:30;51.65;;;20.92;;
19219;SDS011;9744;49.364;7.484;2023-02-01T05:24:58;61.60;;;19.63;;
19219;SDS011;9744;49.364;7.484;2023-02-01T05:27:25;53.92;;;20.55;;
19219;SDS011;9744;49.364;7.484;2023-02-01T05:29:57;54.33;;;20.30;;
19219;SDS011;9744;49.364;7.484;2023-02-01T05:36:22;55.38;;;21.25;;
19219;SDS011;9744;49.364;7.484;2023-02-01T05:38:50;45.40;;;16.73;;
19219;SDS011;9744;49.364;7.484;2023-02-01T05:41:17;33.45;;;14.68;;
19219;SDS011;9744;49.364;7.484;2023-02-01T05:43:45;26.90;;;10.32;;
19219;SDS011;9744;49.364;7.484;2023-02-01T05:46:12;20.85;;;8.15;;
19219;SDS011;9744;49.364;7.484;2023-02-01T05:52:41;21.85;;;10.25;;
19219;SDS011;9744;49.364;7.484;2023-02-01T05:55:08;31.10;;;12.13;;
19219;SDS011;9744;49.364;7.484;2023-02-01T06:01:36;37.00;;;14.95;;
19219;SDS011;9744;49.364;7.484;2023-02-01T06:04:03;46.90;;;17.13;;
19219;SDS011;9744;49.364;7.484;2023-02-01T06:06:30;52.10;;;20.42;;
19219;SDS011;9744;49.364;7.484;2023-02-01T06:08:59;78.15;;;21.60;;
19219;SDS011;9744;49.364;7.484;2023-02-01T06:11:26;78.30;;;25.95;;
19219;SDS011;9744;49.364;7.484;2023-02-01T06:17:49;75.50;;;24.38;;
19219;SDS011;9744;49.364;7.484;2023-02-01T06:20:17;74.45;;;23.98;;
19219;SDS011;9744;49.364;7.484;2023-02-01T06:22:44;76.22;;;26.65;;
19219;SDS011;9744;49.364;7.484;2023-02-01T06:25:12;91.65;;;26.27;;
19219;SDS011;9744;49.364;7.484;2023-02-01T06:30:36;60.78;;;22.35;;
19219;SDS011;9744;49.364;7.484;2023-02-01T06:33:06;56.08;;;21.77;;
19219;SDS011;9744;49.364;7.484;2023-02-01T06:35:34;64.38;;;20.88;;
19219;SDS011;9744;49.364;7.484;2023-02-01T06:38:01;60.28;;;20.35;;
19219;SDS011;9744;49.364;7.484;2023-02-01T06:40:29;59.05;;;20.20;;
19219;SDS011;9744;49.364;7.484;2023-02-01T06:42:57;53.60;;;20.42;;
19219;SDS011;9744;49.364;7.484;2023-02-01T06:45:24;57.13;;;20.10;;
19219;SDS011;9744;49.364;7.484;2023-02-01T06:47:51;69.35;;;22.02;;
19219;SDS011;9744;49.364;7.484;2023-02-01T06:50:19;54.80;;;19.35;;
19219;SDS011;9744;49.364;7.484;2023-02-01T06:52:47;62.00;;;21.05;;
19219;SDS011;9744;49.364;7.484;2023-02-01T06:55:14;62.10;;;21.35;;
19219;SDS011;9744;49.364;7.484;2023-02-01T06:57:43;65.32;;;21.27;;
19219;SDS011;9744;49.364;7.484;2023-02-01T07:00:12;65.53;;;22.15;;
19219;SDS011;9744;49.364;7.484;2023-02-01T07:02:40;57.40;;;21.42;;
19219;SDS011;9744;49.364;7.484;2023-02-01T07:05:08;67.82;;;22.35;;
19219;SDS011;9744;49.364;7.484;2023-02-01T07:07:48;70.47;;;22.08;;
19219;SDS011;9744;49.364;7.484;2023-02-01T07:10:17;71.78;;;23.45;;
19219;SDS011;9744;49.364;7.484;2023-02-01T07:12:46;74.43;;;21.85;;
19219;SDS011;9744;49.364;7.484;2023-02-01T07:15:14;75.78;;;23.25;;
19219;SDS011;9744;49.364;7.484;2023-02-01T07:17:57;64.50;;;22.45;;
19219;SDS011;9744;49.364;7.484;2023-02-01T07:20:27;71.15;;;22.67;;
19219;SDS011;9744;49.364;7.484;2023-02-01T07:30:18;72.82;;;19.40;;
19219;SDS011;9744;49.364;7.484;2023-02-01T07:32:46;69.90;;;20.13;;
19219;SDS011;9744;49.364;7.484;2023-02-01T07:35:19;74.55;;;21.50;;
19219;SDS011;9744;49.364;7.484;2023-02-01T07:37:46;66.68;;;17.70;;
19219;SDS011;9744;49.364;7.484;2023-02-01T07:40:13;74.28;;;17.88;;
19219;SDS011;9744;49.364;7.484;2023-02-01T07:42:40;49.03;;;17.60;;
19219;SDS011;9744;49.364;7.484;2023-02-01T07:45:21;58.15;;;17.80;;
19219;SDS011;9744;49.364;7.484;2023-02-01T07:47:50;59.75;;;17.98;;
19219;SDS011;9744;49.364;7.484;2023-02-01T07:50:21;63.35;;;16.95;;
19219;SDS011;9744;49.364;7.484;2023-02-01T07:52:48;66.68;;;17.92;;
19219;SDS011;9744;49.364;7.484;2023-02-01T07:55:24;65.13;;;19.08;;
19219;SDS011;9744;49.364;7.484;2023-02-01T08:00:54;68.07;;;17.73;;
19219;SDS011;9744;49.364;7.484;2023-02-01T08:03:39;56.25;;;16.08;;
19219;SDS011;9744;49.364;7.484;2023-02-01T08:09:35;56.30;;;16.33;;
19219;SDS011;9744;49.364;7.484;2023-02-01T08:12:15;55.85;;;17.45;;
19219;SDS011;9744;49.364;7.484;2023-02-01T08:14:42;57.58;;;14.93;;
19219;SDS011;9744;49.364;7.484;2023-02-01T08:23:28;50.63;;;15.63;;
19219;SDS011;9744;49.364;7.484;2023-02-01T08:26:03;61.80;;;16.75;;
19219;SDS011;9744;49.364;7.484;2023-02-01T08:28:53;73.93;;;20.50;;
19219;SDS011;9744;49.364;7.484;2023-02-01T08:34:16;55.08;;;11.95;;
19219;SDS011;9744;49.364;7.484;2023-02-01T08:40:21;44.25;;;11.93;;
19219;SDS011;9744;49.364;7.484;2023-02-01T08:42:48;52.85;;;11.25;;
19219;SDS011;9744;49.364;7.484;2023-02-01T08:45:22;52.97;;;12.10;;
19219;SDS011;9744;49.364;7.484;2023-02-01T08:47:53;49.63;;;12.48;;
19219;SDS011;9744;49.364;7.484;2023-02-01T08:50:25;67.60;;;18.25;;
19219;SDS011;9744;49.364;7.484;2023-02-01T08:52:52;56.85;;;10.77;;
19219;SDS011;9744;49.364;7.484;2023-02-01T08:55:23;64.95;;;10.80;;
19219;SDS011;9744;49.364;7.484;2023-02-01T08:57:57;46.22;;;10.25;;
19219;SDS011;9744;49.364;7.484;2023-02-01T09:00:25;43.20;;;9.25;;
19219;SDS011;9744;49.364;7.484;2023-02-01T09:02:52;48.35;;;9.63;;
19219;SDS011;9744;49.364;7.484;2023-02-01T09:05:22;44.95;;;9.15;;
19219;SDS011;9744;49.364;7.484;2023-02-01T09:07:52;40.10;;;9.20;;
19219;SDS011;9744;49.364;7.484;2023-02-01T09:10:21;55.50;;;9.18;;
19219;SDS011;9744;49.364;7.484;2023-02-01T09:12:58;38.35;;;8.48;;
19219;SDS011;9744;49.364;7.484;2023-02-01T09:15:29;49.17;;;10.13;;
19219;SDS011;9744;49.364;7.484;2023-02-01T09:17:56;49.40;;;13.55;;
19219;SDS011;9744;49.364;7.484;2023-02-01T09:20:23;61.67;;;10.45;;
19219;SDS011;9744;49.364;7.484;2023-02-01T09:22:51;50.47;;;9.50;;
19219;SDS011;9744;49.364;7.484;2023-02-01T09:25:20;40.63;;;8.60;;
19219;SDS011;9744;49.364;7.484;2023-02-01T09:27:48;46.47;;;10.25;;
19219;SDS011;9744;49.364;7.484;2023-02-01T09:30:31;31.73;;;8.60;;
19219;SDS011;9744;49.364;7.484;2023-02-01T09:36:31;34.30;;;7.25;;
19219;SDS011;9744;49.364;7.484;2023-02-01T09:39:00;44.17;;;7.00;;
19219;SDS011;9744;49.364;7.484;2023-02-01T09:41:38;46.33;;;7.53;;
19219;SDS011;9744;49.364;7.484;2023-02-01T09:44:16;41.58;;;11.00;;
19219;SDS011;9744;49.364;7.484;2023-02-01T09:47:01;42.05;;;7.57;;
19219;SDS011;9744;49.364;7.484;2023-02-01T09:49:33;50.30;;;7.80;;
19219;SDS011;9744;49.364;7.484;2023-02-01T09:52:08;44.13;;;7.43;;
19219;SDS011;9744;49.364;7.484;2023-02-01T09:54:41;56.80;;;7.22;;
19219;SDS011;9744;49.364;7.484;2023-02-01T10:00:26;38.75;;;6.22;;
19219;SDS011;9744;49.364;7.484;2023-02-01T10:02:57;50.45;;;7.90;;
19219;SDS011;9744;49.364;7.484;2023-02-01T10:05:30;36.67;;;6.95;;
19219;SDS011;9744;49.364;7.484;2023-02-01T10:08:12;36.88;;;6.60;;
19219;SDS011;9744;49.364;7.484;2023-02-01T10:10:48;39.47;;;6.75;;
19219;SDS011;9744;49.364;7.484;2023-02-01T10:13:30;37.92;;;7.55;;
19219;SDS011;9744;49.364;7.484;2023-02-01T10:20:18;43.55;;;5.95;;
19219;SDS011;9744;49.364;7.484;2023-02-01T10:22:54;35.60;;;7.00;;
19219;SDS011;9744;49.364;7.484;2023-02-01T10:25:35;23.90;;;5.20;;
19219;SDS011;9744;49.364;7.484;2023-02-01T10:28:08;39.38;;;6.68;;
19219;SDS011;9744;49.364;7.484;2023-02-01T10:30:43;41.60;;;6.20;;
19219;SDS011;9744;49.364;7.484;2023-02-01T10:33:16;46.70;;;8.43;;
19219;SDS011;9744;49.364;7.484;2023-02-01T10:35:46;42.35;;;6.18;;
19219;SDS011;9744;49.364;7.484;2023-02-01T10:38:22;31.38;;;6.10;;
19219;SDS011;9744;49.364;7.484;2023-02-01T10:49:13;28.05;;;4.65;;
19219;SDS011;9744;49.364;7.484;2023-02-01T10:55:41;37.05;;;6.07;;
19219;SDS011;9744;49.364;7.484;2023-02-01T10:58:17;31.88;;;4.50;;
19219;SDS011;9744;49.364;7.484;2023-02-01T11:00:46;28.85;;;5.35;;
19219;SDS011;9744;49.364;7.484;2023-02-01T11:03:32;42.85;;;6.07;;
19219;SDS011;9744;49.364;7.484;2023-02-01T11:06:03;29.90;;;4.72;;
19219;SDS011;9744;49.364;7.484;2023-02-01T11:08:45;28.33;;;5.18;;
19219;SDS011;9744;49.364;7.484;2023-02-01T11:14:49;28.75;;;4.72;;
19219;SDS011;9744;49.364;7.484;2023-02-01T11:17:21;35.22;;;6.28;;
19219;SDS011;9744;49.364;7.484;2023-02-01T11:19:57;33.15;;;4.63;;
19219;SDS011;9744;49.364;7.484;2023-02-01T11:22:27;39.63;;;6.20;;
19219;SDS011;9744;49.364;7.484;2023-02-01T11:27:58;40.95;;;5.65;;
19219;SDS011;9744;49.364;7.484;2023-02-01T11:30:30;30.85;;;5.20;;
19219;SDS011;9744;49.364;7.484;2023-02-01T11:33:00;29.55;;;5.35;;
19219;SDS011;9744;49.364;7.484;2023-02-01T11:35:30;26.33;;;4.78;;
19219;SDS011;9744;49.364;7.484;2023-02-01T11:37:58;39.00;;;5.90;;
19219;SDS011;9744;49.364;7.484;2023-02-01T11:40:29;29.33;;;4.90;;
19219;SDS011;9744;49.364;7.484;2023-02-01T11:53:25;24.63;;;4.45;;
19219;SDS011;9744;49.364;7.484;2023-02-01T11:56:03;28.40;;;5.25;;
19219;SDS011;9744;49.364;7.484;2023-02-01T12:02:42;30.48;;;4.47;;
19219;SDS011;9744;49.364;7.484;2023-02-01T12:05:28;31.05;;;4.20;;
19219;SDS011;9744;49.364;7.484;2023-02-01T12:11:10;29.25;;;3.83;;
19219;SDS011;9744;49.364;7.484;2023-02-01T12:13:53;17.10;;;3.35;;
19219;SDS011;9744;49.364;7.484;2023-02-01T12:16:34;26.55;;;4.03;;
19219;SDS011;9744;49.364;7.484;2023-02-01T12:22:14;15.23;;;3.47;;
19219;SDS011;9744;49.364;7.484;2023-02-01T12:28:38;32.13;;;4.35;;
19219;SDS011;9744;49.364;7.484;2023-02-01T12:31:43;27.17;;;4.65;;
19219;SDS011;9744;49.364;7.484;2023-02-01T12:41:28;28.90;;;5.60;;
19219;SDS011;9744;49.364;7.484;2023-02-01T12:44:23;21.38;;;3.50;;
19219;SDS011;9744;49.364;7.484;2023-02-01T12:46:56;28.45;;;4.72;;
19219;SDS011;9744;49.364;7.484;2023-02-01T12:49:31;21.17;;;4.55;;
19219;SDS011;9744;49.364;7.484;2023-02-01T12:52:09;25.92;;;5.18;;
19219;SDS011;9744;49.364;7.484;2023-02-01T12:54:42;21.63;;;4.03;;
19219;SDS011;9744;49.364;7.484;2023-02-01T12:57:17;23.85;;;4.90;;
19219;SDS011;9744;49.364;7.484;2023-02-01T12:59:49;24.70;;;4.38;;
19219;SDS011;9744;49.364;7.484;2023-02-01T13:02:24;24.45;;;4.57;;
19219;SDS011;9744;49.364;7.484;2023-02-01T13:05:03;25.40;;;5.03;;
19219;SDS011;9744;49.364;7.484;2023-02-01T13:07:41;32.22;;;3.75;;
19219;SDS011;9744;49.364;7.484;2023-02-01T13:10:15;26.05;;;3.85;;
19219;SDS011;9744;49.364;7.484;2023-02-01T13:12:50;23.92;;;4.28;;
19219;SDS011;9744;49.364;7.484;2023-02-01T13:15:21;30.33;;;3.90;;
19219;SDS011;9744;49.364;7.484;2023-02-01T13:17:52;16.92;;;3.30;;
19219;SDS011;9744;49.364;7.484;2023-02-01T13:20:27;25.75;;;4.13;;
19219;SDS011;9744;49.364;7.484;2023-02-01T13:22:59;21.90;;;3.92;;
19219;SDS011;9744;49.364;7.484;2023-02-01T13:25:33;22.67;;;3.38;;
19219;SDS011;9744;49.364;7.484;2023-02-01T13:28:06;23.77;;;3.35;;
19219;SDS011;9744;49.364;7.484;2023-02-01T13:30:41;33.78;;;5.05;;
19219;SDS011;9744;49.364;7.484;2023-02-01T13:36:31;32.47;;;4.72;;
19219;SDS011;9744;49.364;7.484;2023-02-01T13:42:13;24.48;;;4.38;;
19219;SDS011;9744;49.364;7.484;2023-02-01T13:44:45;22.20;;;4.25;;
19219;SDS011;9744;49.364;7.484;2023-02-01T13:47:19;28.42;;;5.15;;
19219;SDS011;9744;49.364;7.484;2023-02-01T13:49:53;19.90;;;3.60;;
19219;SDS011;9744;49.364;7.484;2023-02-01T13:52:25;20.58;;;4.30;;
19219;SDS011;9744;49.364;7.484;2023-02-01T14:01:32;18.52;;;3.05;;
19219;SDS011;9744;49.364;7.484;2023-02-01T14:04:02;18.35;;;3.28;;
19219;SDS011;9744;49.364;7.484;2023-02-01T14:06:36;27.45;;;3.58;;
19219;SDS011;9744;49.364;7.484;2023-02-01T14:09:16;22.17;;;4.38;;
19219;SDS011;9744;49.364;7.484;2023-02-01T14:11:49;23.88;;;4.03;;
19219;SDS011;9744;49.364;7.484;2023-02-01T14:26:42;18.77;;;3.78;;
19219;SDS011;9744;49.364;7.484;2023-02-01T14:29:20;27.60;;;3.80;;
19219;SDS011;9744;49.364;7.484;2023-02-01T14:34:58;24.67;;;3.90;;
19219;SDS011;9744;49.364;7.484;2023-02-01T14:37:28;20.55;;;3.53;;
19219;SDS011;9744;49.364;7.484;2023-02-01T14:39:59;27.38;;;3.95;;
19219;SDS011;9744;49.364;7.484;2023-02-01T14:42:29;19.63;;;3.55;;
19219;SDS011;9744;49.364;7.484;2023-02-01T14:51:26;29.33;;;4.90;;
19219;SDS011;9744;49.364;7.484;2023-02-01T14:53:55;16.58;;;3.47;;
19219;SDS011;9744;49.364;7.484;2023-02-01T14:56:26;20.10;;;3.25;;
19219;SDS011;9744;49.364;7.484;2023-02-01T14:58:55;20.60;;;3.05;;
19219;SDS011;9744;49.364;7.484;2023-02-01T15:01:25;29.02;;;4.20;;
19219;SDS011;9744;49.364;7.484;2023-02-01T15:03:55;27.23;;;4.85;;
19219;SDS011;9744;49.364;7.484;2023-02-01T15:06:30;26.73;;;4.50;;
19219;SDS011;9744;49.364;7.484;2023-02-01T15:09:03;25.35;;;3.10;;
19219;SDS011;9744;49.364;7.484;2023-02-01T15:14:20;28.98;;;4.32;;
19219;SDS011;9744;49.364;7.484;2023-02-01T15:16:48;27.85;;;4.97;;
19219;SDS011;9744;49.364;7.484;2023-02-01T15:19:19;28.65;;;4.65;;
19219;SDS011;9744;49.364;7.484;2023-02-01T15:21:50;24.25;;;4.88;;
19219;SDS011;9744;49.364;7.484;2023-02-01T15:27:19;23.25;;;3.92;;
19219;SDS011;9744;49.364;7.484;2023-02-01T15:29:47;21.05;;;3.33;;
19219;SDS011;9744;49.364;7.484;2023-02-01T15:32:28;20.00;;;3.95;;
19219;SDS011;9744;49.364;7.484;2023-02-01T15:34:58;23.58;;;4.55;;
19219;SDS011;9744;49.364;7.484;2023-02-01T15:37:28;16.58;;;3.08;;
19219;SDS011;9744;49.364;7.484;2023-02-01T15:40:04;23.65;;;4.57;;
19219;SDS011;9744;49.364;7.484;2023-02-01T15:42:51;22.45;;;4.13;;
19219;SDS011;9744;49.364;7.484;2023-02-01T15:45:21;20.60;;;3.25;;
19219;SDS011;9744;49.364;7.484;2023-02-01T15:47:52;21.60;;;3.92;;
19219;SDS011;9744;49.364;7.484;2023-02-01T15:50:22;15.07;;;3.05;;
19219;SDS011;9744;49.364;7.484;2023-02-01T15:52:54;20.00;;;3.85;;
19219;SDS011;9744;49.364;7.484;2023-02-01T15:55:23;22.85;;;3.72;;
19219;SDS011;9744;49.364;7.484;2023-02-01T15:58:00;21.00;;;3.30;;
19219;SDS011;9744;49.364;7.484;2023-02-01T16:00:34;26.90;;;4.30;;
19219;SDS011;9744;49.364;7.484;2023-02-01T16:03:23;28.58;;;4.22;;
19219;SDS011;9744;49.364;7.484;2023-02-01T16:05:56;20.50;;;3.33;;
19219;SDS011;9744;49.364;7.484;2023-02-01T16:08:28;15.93;;;2.97;;
19219;SDS011;9744;49.364;7.484;2023-02-01T16:11:00;23.45;;;3.75;;
19219;SDS011;9744;49.364;7.484;2023-02-01T16:13:40;16.40;;;3.42;;
19219;SDS011;9744;49.364;7.484;2023-02-01T16:16:09;23.05;;;3.90;;
19219;SDS011;9744;49.364;7.484;2023-02-01T16:18:39;32.97;;;4.43;;
19219;SDS011;9744;49.364;7.484;2023-02-01T16:21:10;36.47;;;4.32;;
19219;SDS011;9744;49.364;7.484;2023-02-01T16:23:39;18.77;;;2.80;;
19219;SDS011;9744;49.364;7.484;2023-02-01T16:26:07;18.35;;;3.10;;
19219;SDS011;9744;49.364;7.484;2023-02-01T16:28:35;25.98;;;4.43;;
19219;SDS011;9744;49.364;7.484;2023-02-01T16:31:03;25.63;;;3.78;;
19219;SDS011;9744;49.364;7.484;2023-02-01T16:33:33;31.23;;;3.92;;
19219;SDS011;9744;49.364;7.484;2023-02-01T16:36:01;21.23;;;3.70;;
19219;SDS011;9744;49.364;7.484;2023-02-01T16:38:29;22.52;;;4.00;;
19219;SDS011;9744;49.364;7.484;2023-02-01T16:40:59;24.48;;;3.13;;
19219;SDS011;9744;49.364;7.484;2023-02-01T16:43:28;32.35;;;5.03;;
19219;SDS011;9744;49.364;7.484;2023-02-01T16:45:58;19.67;;;5.22;;
19219;SDS011;9744;49.364;7.484;2023-02-01T16:48:28;16.85;;;3.55;;
19219;SDS011;9744;49.364;7.484;2023-02-01T16:50:58;24.10;;;3.80;;
19219;SDS011;9744;49.364;7.484;2023-02-01T16:53:28;25.90;;;4.40;;
19219;SDS011;9744;49.364;7.484;2023-02-01T16:55:59;26.48;;;4.78;;
19219;SDS011;9744;49.364;7.484;2023-02-01T16:58:28;20.67;;;3.85;;
19219;SDS011;9744;49.364;7.484;2023-02-01T17:00:55;18.77;;;3.50;;
19219;SDS011;9744;49.364;7.484;2023-02-01T17:03:23;21.88;;;4.10;;
19219;SDS011;9744;49.364;7.484;2023-02-01T17:05:52;16.38;;;3.60;;
19219;SDS011;9744;49.364;7.484;2023-02-01T17:08:22;25.25;;;4.72;;
19219;SDS011;9744;49.364;7.484;2023-02-01T17:13:50;24.27;;;4.15;;
19219;SDS011;9744;49.364;7.484;2023-02-01T17:16:20;16.50;;;3.60;;
19219;SDS011;9744;49.364;7.484;2023-02-01T17:18:55;33.40;;;5.38;;
19219;SDS011;9744;49.364;7.484;2023-02-01T17:21:25;27.00;;;3.47;;
19219;SDS011;9744;49.364;7.484;2023-02-01T17:23:55;22.92;;;4.00;;
19219;SDS011;9744;49.364;7.484;2023-02-01T17:26:25;25.85;;;3.78;;
19219;SDS011;9744;49.364;7.484;2023-02-01T17:28:53;28.73;;;4.72;;
19219;SDS011;9744;49.364;7.484;2023-02-01T17:31:22;27.88;;;6.00;;
19219;SDS011;9744;49.364;7.484;2023-02-01T17:33:50;27.48;;;4.65;;
19219;SDS011;9744;49.364;7.484;2023-02-01T17:36:17;26.95;;;3.85;;
19219;SDS011;9744;49.364;7.484;2023-02-01T17:38:46;23.98;;;3.67;;
19219;SDS011;9744;49.364;7.484;2023-02-01T17:41:18;35.65;;;5.20;;
19219;SDS011;9744;49.364;7.484;2023-02-01T17:43:47;32.72;;;3.97;;
19219;SDS011;9744;49.364;7.484;2023-02-01T17:46:16;20.05;;;4.32;;
19219;SDS011;9744;49.364;7.484;2023-02-01T17:48:45;23.67;;;3.15;;
19219;SDS011;9744;49.364;7.484;2023-02-01T17:51:14;33.92;;;4.95;;
19219;SDS011;9744;49.364;7.484;2023-02-01T17:53:43;25.52;;;4.13;;
19219;SDS011;9744;49.364;7.484;2023-02-01T17:56:12;31.63;;;4.20;;
19219;SDS011;9744;49.364;7.484;2023-02-01T17:58:42;29.77;;;3.65;;
19219;SDS011;9744;49.364;7.484;2023-02-01T18:01:14;23.00;;;3.88;;
19219;SDS011;9744;49.364;7.484;2023-02-01T18:03:44;22.23;;;3.45;;
19219;SDS011;9744;49.364;7.484;2023-02-01T18:06:12;20.20;;;3.28;;
19219;SDS011;9744;49.364;7.484;2023-02-01T18:08:41;23.45;;;4.45;;
19219;SDS011;9744;49.364;7.484;2023-02-01T18:11:11;18.58;;;3.60;;
19219;SDS011;9744;49.364;7.484;2023-02-01T18:13:40;27.75;;;4.80;;
19219;SDS011;9744;49.364;7.484;2023-02-01T18:16:15;29.40;;;4.22;;
19219;SDS011;9744;49.364;7.484;2023-02-01T18:18:45;25.38;;;4.80;;
19219;SDS011;9744;49.364;7.484;2023-02-01T18:21:13;23.75;;;4.28;;
19219;SDS011;9744;49.364;7.484;2023-02-01T18:23:42;21.33;;;4.13;;